Time;durP1;ratioP1;P1;durP2;ratioP2;P2;SDS_P1;SDS_P2;PMS_P1;PMS_P2;Temp;Humidity;BMP_temperature;BMP_pressure;BME280_temperature;BME280_humidity;BME280_pressure;Samples;Min_cycle;Max_cycle;Signal;HPM_P1;HPM_P2
2021/12/12 00:04:31;;;;;;;8.23;3.53;;;;;;;;;;10275154;28;20501;-71
2021/12/12 00:09:38;;;;;;;7.47;3.03;;;;;;;;;;10272602;28;20467;-70
2021/12/12 00:14:43;;;;;;;10.80;3.93;;;;;;;;;;10268756;28;20050;-71
2021/12/12 00:19:47;;;;;;;11.37;4.70;;;;;;;;;;10267069;28;20035;-71
2021/12/12 00:24:52;;;;;;;10.52;4.38;;;;;;;;;;10275905;28;20043;-72
2021/12/12 00:30:02;;;;;;;15.23;4.90;;;;;;;;;;10254520;28;20031;-69
2021/12/12 00:35:08;;;;;;;7.07;3.43;;;;;;;;;;10279838;28;20031;-70
2021/12/12 00:40:18;;;;;;;6.33;3.23;;;;;;;;;;10271211;28;20043;-70
2021/12/12 00:45:23;;;;;;;6.90;3.27;;;;;;;;;;10261739;28;20051;-68
2021/12/12 00:50:27;;;;;;;8.07;3.20;;;;;;;;;;10272145;28;20031;-69
2021/12/12 00:55:37;;;;;;;5.80;3.43;;;;;;;;;;10274997;28;20050;-70
2021/12/12 01:00:47;;;;;;;6.60;3.23;;;;;;;;;;10280029;28;20047;-69
2021/12/12 01:05:52;;;;;;;10.37;2.60;;;;;;;;;;10338269;22;20447;-70
2021/12/12 01:10:57;;;;;;;8.37;2.70;;;;;;;;;;10324020;28;20045;-69
2021/12/12 01:16:04;;;;;;;7.90;3.27;;;;;;;;;;10327822;28;20090;-68
2021/12/12 01:21:13;;;;;;;6.77;3.57;;;;;;;;;;10325696;28;20051;-67
2021/12/12 01:26:18;;;;;;;13.57;4.77;;;;;;;;;;10321440;28;20053;-70
2021/12/12 01:31:26;;;;;;;3.70;1.93;;;;;;;;;;10324538;28;20034;-70
2021/12/12 01:36:44;;;;;;;8.13;3.60;;;;;;;;;;10321196;28;20042;-70
2021/12/12 01:41:51;;;;;;;14.40;6.03;;;;;;;;;;10324640;28;20101;-70
2021/12/12 01:47:02;;;;;;;13.40;5.60;;;;;;;;;;10326246;28;20045;-70
2021/12/12 01:52:06;;;;;;;5.50;2.90;;;;;;;;;;10319681;28;21667;-68
2021/12/12 01:57:11;;;;;;;12.15;4.95;;;;;;;;;;10318848;28;20073;-69
2021/12/12 02:02:16;;;;;;;7.00;3.10;;;;;;;;;;10319390;28;20053;-67
2021/12/12 02:07:21;;;;;;;11.67;4.37;;;;;;;;;;10322614;28;20046;-69
2021/12/12 02:12:35;;;;;;;7.18;2.80;;;;;;;;;;10325747;28;20442;-69
2021/12/12 02:17:58;;;;;;;8.47;4.20;;;;;;;;;;10322936;28;20047;-68
2021/12/12 02:23:32;;;;;;;17.03;6.40;;;;;;;;;;10322752;28;20137;-70
2021/12/12 02:39:34;;;;;;;13.17;4.07;;;;;;;;;;10325151;28;20045;-68
2021/12/12 02:44:39;;;;;;;12.37;4.43;;;;;;;;;;10323807;28;20038;-69
2021/12/12 02:49:55;;;;;;;14.27;5.73;;;;;;;;;;10319825;28;20125;-69
2021/12/12 02:55:02;;;;;;;17.17;5.93;;;;;;;;;;10320844;28;20042;-69
2021/12/12 03:00:06;;;;;;;7.73;3.40;;;;;;;;;;10326076;28;20147;-70
2021/12/12 03:05:09;;;;;;;9.90;3.63;;;;;;;;;;10316600;28;20446;-69
2021/12/12 03:10:15;;;;;;;9.20;4.33;;;;;;;;;;10322168;28;20060;-69
2021/12/12 03:15:20;;;;;;;4.50;2.03;;;;;;;;;;10318473;28;20106;-69
2021/12/12 03:20:25;;;;;;;8.40;2.73;;;;;;;;;;10314051;28;20041;-69
2021/12/12 03:25:31;;;;;;;14.00;5.07;;;;;;;;;;10319050;28;20035;-69
2021/12/12 03:30:34;;;;;;;6.60;2.87;;;;;;;;;;10323865;28;20039;-69
2021/12/12 03:35:38;;;;;;;3.35;1.70;;;;;;;;;;10332304;28;20038;-70
2021/12/12 03:40:44;;;;;;;12.13;4.47;;;;;;;;;;10332966;28;20467;-70
2021/12/12 03:45:47;;;;;;;7.57;3.67;;;;;;;;;;10338433;28;20054;-71
2021/12/12 03:50:52;;;;;;;6.97;3.20;;;;;;;;;;10340958;28;20042;-70
2021/12/12 03:55:57;;;;;;;19.17;6.33;;;;;;;;;;10349724;28;21410;-70
2021/12/12 04:01:04;;;;;;;9.97;4.43;;;;;;;;;;10314002;28;20038;-69
2021/12/12 04:06:09;;;;;;;5.80;2.23;;;;;;;;;;10318770;28;20106;-68
2021/12/12 04:11:15;;;;;;;7.37;3.13;;;;;;;;;;10323678;28;20050;-69
2021/12/12 04:16:19;;;;;;;6.30;2.50;;;;;;;;;;10322420;28;20479;-69
2021/12/12 04:21:42;;;;;;;14.13;4.57;;;;;;;;;;10322898;28;20054;-70
2021/12/12 04:26:46;;;;;;;9.30;3.67;;;;;;;;;;10321245;28;20042;-70
2021/12/12 04:31:52;;;;;;;9.17;2.17;;;;;;;;;;10314466;28;20110;-67
2021/12/12 04:36:56;;;;;;;9.13;3.67;;;;;;;;;;10321294;28;20450;-69
2021/12/12 04:42:02;;;;;;;10.27;3.92;;;;;;;;;;10319370;28;20038;-70
2021/12/12 04:52:31;;;;;;;4.17;2.37;;;;;;;;;;10314180;28;20081;-68
2021/12/12 04:57:39;;;;;;;6.07;1.73;;;;;;;;;;10327400;28;20039;-68
2021/12/12 05:02:45;;;;;;;12.57;5.17;;;;;;;;;;10323902;28;20100;-68
2021/12/12 05:07:52;;;;;;;13.13;5.03;;;;;;;;;;10320659;28;20390;-68
2021/12/12 05:12:59;;;;;;;12.07;4.43;;;;;;;;;;10327708;28;20049;-69
2021/12/12 05:18:05;;;;;;;3.57;1.90;;;;;;;;;;10341478;28;20518;-68
2021/12/12 05:23:10;;;;;;;7.50;3.23;;;;;;;;;;10324631;28;20364;-68
2021/12/12 05:28:15;;;;;;;10.13;3.27;;;;;;;;;;10321146;28;20061;-68
2021/12/12 05:33:18;;;;;;;4.90;2.13;;;;;;;;;;10325036;28;20039;-68
2021/12/12 05:38:22;;;;;;;4.95;2.25;;;;;;;;;;10318693;28;20097;-68
2021/12/12 05:43:26;;;;;;;6.73;2.77;;;;;;;;;;10317477;28;20141;-68
2021/12/12 05:48:30;;;;;;;8.50;3.73;;;;;;;;;;10316231;28;20050;-69
2021/12/12 05:53:33;;;;;;;7.22;3.33;;;;;;;;;;10320693;28;20053;-70
2021/12/12 05:58:39;;;;;;;5.88;2.50;;;;;;;;;;10318716;28;20038;-68
2021/12/12 06:03:43;;;;;;;9.63;3.43;;;;;;;;;;10317755;28;20042;-69
2021/12/12 06:08:46;;;;;;;10.00;3.85;;;;;;;;;;10320905;28;20035;-69
2021/12/12 06:13:52;;;;;;;3.10;1.38;;;;;;;;;;10321322;28;20058;-68
2021/12/12 06:18:59;;;;;;;7.30;3.13;;;;;;;;;;10334190;28;20502;-67
2021/12/12 06:24:02;;;;;;;5.57;1.97;;;;;;;;;;10327890;28;20495;-69
2021/12/12 06:29:07;;;;;;;2.63;1.40;;;;;;;;;;10332529;28;20034;-69
2021/12/12 06:34:11;;;;;;;7.07;2.50;;;;;;;;;;10331755;28;20058;-69
2021/12/12 06:39:15;;;;;;;4.90;2.47;;;;;;;;;;10330313;28;20097;-68
2021/12/12 06:44:20;;;;;;;8.60;3.00;;;;;;;;;;10330733;28;20054;-67
2021/12/12 06:49:24;;;;;;;6.63;2.40;;;;;;;;;;10334586;28;20618;-68
2021/12/12 06:54:28;;;;;;;5.22;1.58;;;;;;;;;;10335830;28;20038;-67
2021/12/12 06:59:34;;;;;;;6.47;2.70;;;;;;;;;;10331037;28;20502;-67
2021/12/12 07:04:38;;;;;;;4.83;1.63;;;;;;;;;;10329199;28;20030;-68
2021/12/12 07:09:43;;;;;;;8.90;2.55;;;;;;;;;;10312105;28;20035;-69
2021/12/12 07:14:47;;;;;;;2.33;1.70;;;;;;;;;;10310939;28;20056;-69
2021/12/12 07:19:51;;;;;;;6.60;2.37;;;;;;;;;;10318627;28;20038;-68
2021/12/12 07:24:54;;;;;;;3.27;1.73;;;;;;;;;;10337392;22;20058;-71
2021/12/12 07:29:59;;;;;;;5.57;1.77;;;;;;;;;;10353109;28;20296;-72
2021/12/12 07:35:06;;;;;;;10.03;3.40;;;;;;;;;;10337420;28;20110;-72
2021/12/12 07:40:14;;;;;;;8.13;3.27;;;;;;;;;;10316348;28;20113;-70
2021/12/12 07:45:20;;;;;;;2.73;1.67;;;;;;;;;;10326607;28;20593;-70
2021/12/12 07:50:25;;;;;;;7.83;2.07;;;;;;;;;;10334678;28;20041;-69
2021/12/12 07:55:28;;;;;;;7.73;2.83;;;;;;;;;;10336408;28;20195;-70
2021/12/12 08:00:32;;;;;;;4.43;1.97;;;;;;;;;;10327056;28;20541;-72
2021/12/12 08:05:36;;;;;;;7.27;2.90;;;;;;;;;;10319799;28;20039;-70
2021/12/12 08:10:40;;;;;;;4.00;2.30;;;;;;;;;;10313403;28;20042;-69
2021/12/12 08:15:44;;;;;;;6.68;2.80;;;;;;;;;;10317442;28;20066;-70
2021/12/12 08:20:48;;;;;;;6.67;2.80;;;;;;;;;;10333604;28;20137;-70
2021/12/12 08:25:52;;;;;;;7.43;3.13;;;;;;;;;;10322561;28;20046;-70
2021/12/12 08:30:56;;;;;;;6.43;2.67;;;;;;;;;;10332822;28;20042;-70
2021/12/12 08:36:00;;;;;;;1.90;1.10;;;;;;;;;;10337990;28;20046;-70
2021/12/12 08:41:05;;;;;;;8.20;3.28;;;;;;;;;;10334845;28;20125;-70
2021/12/12 08:46:10;;;;;;;8.43;2.87;;;;;;;;;;10328317;28;20506;-69
2021/12/12 08:51:17;;;;;;;7.50;3.85;;;;;;;;;;10326687;28;20082;-70
2021/12/12 08:56:31;;;;;;;6.22;3.28;;;;;;;;;;10320400;28;20035;-69
2021/12/12 09:01:37;;;;;;;8.75;3.63;;;;;;;;;;10346659;28;20387;-71
2021/12/12 09:06:44;;;;;;;5.70;3.33;;;;;;;;;;10341565;28;20049;-70
2021/12/12 09:11:50;;;;;;;7.32;4.30;;;;;;;;;;10338369;28;20097;-71
2021/12/12 09:16:57;;;;;;;6.80;4.22;;;;;;;;;;10321730;28;20122;-70
2021/12/12 09:22:04;;;;;;;7.40;4.35;;;;;;;;;;10327989;28;20070;-71
2021/12/12 09:27:09;;;;;;;8.57;4.80;;;;;;;;;;10322014;28;20056;-71
2021/12/12 09:32:15;;;;;;;7.75;4.97;;;;;;;;;;10326382;28;20514;-71
2021/12/12 09:37:20;;;;;;;8.77;5.82;;;;;;;;;;10331910;28;20753;-71
2021/12/12 09:42:47;;;;;;;7.25;5.03;;;;;;;;;;10327429;28;20168;-71
2021/12/12 09:48:27;;;;;;;7.57;5.10;;;;;;;;;;10321700;28;20552;-71
2021/12/12 09:53:33;;;;;;;8.65;5.65;;;;;;;;;;10328111;28;20038;-69
2021/12/12 09:58:42;;;;;;;5.25;3.17;;;;;;;;;;10318102;28;20084;-69
2021/12/12 10:03:50;;;;;;;6.38;3.90;;;;;;;;;;10318297;28;20058;-71
2021/12/12 10:08:59;;;;;;;6.25;3.42;;;;;;;;;;10330463;28;20408;-70
2021/12/12 10:14:04;;;;;;;8.80;5.00;;;;;;;;;;10336881;28;20030;-70
2021/12/12 10:19:13;;;;;;;7.88;4.90;;;;;;;;;;10328038;28;20485;-71
2021/12/12 10:24:24;;;;;;;8.70;5.57;;;;;;;;;;10332859;28;20037;-71
2021/12/12 10:29:30;;;;;;;9.10;4.97;;;;;;;;;;10324105;28;20050;-71
2021/12/12 10:34:37;;;;;;;6.47;4.15;;;;;;;;;;10324691;28;20104;-70
2021/12/12 10:39:42;;;;;;;5.53;3.38;;;;;;;;;;10327418;28;20073;-71
2021/12/12 10:44:47;;;;;;;6.72;4.65;;;;;;;;;;10341790;28;20030;-71
2021/12/12 10:50:02;;;;;;;8.15;5.45;;;;;;;;;;10326874;28;20526;-71
2021/12/12 10:55:08;;;;;;;5.85;3.88;;;;;;;;;;10334906;28;20120;-71
2021/12/12 11:00:12;;;;;;;7.28;5.13;;;;;;;;;;10316413;28;20129;-76
2021/12/12 11:05:18;;;;;;;7.88;5.03;;;;;;;;;;10326127;28;20046;-71
2021/12/12 11:10:22;;;;;;;6.47;4.38;;;;;;;;;;10330670;28;20041;-72
2021/12/12 11:15:28;;;;;;;6.50;4.57;;;;;;;;;;10326401;28;20114;-70
2021/12/12 11:20:35;;;;;;;6.90;5.10;;;;;;;;;;10324039;28;20096;-70
2021/12/12 11:25:40;;;;;;;5.68;4.22;;;;;;;;;;10315804;28;20038;-70
2021/12/12 11:30:46;;;;;;;5.68;3.70;;;;;;;;;;10301859;28;20035;-72
2021/12/12 11:35:51;;;;;;;6.95;5.03;;;;;;;;;;10311963;28;20049;-72
2021/12/12 11:40:57;;;;;;;5.40;3.10;;;;;;;;;;10316126;28;20038;-71
2021/12/12 11:46:02;;;;;;;5.65;3.70;;;;;;;;;;10322613;28;20046;-72
2021/12/12 11:51:11;;;;;;;4.78;2.15;;;;;;;;;;10310949;28;20096;-71
2021/12/12 11:56:16;;;;;;;4.05;2.50;;;;;;;;;;10320175;28;20124;-71
2021/12/12 12:01:22;;;;;;;4.07;2.55;;;;;;;;;;10321295;28;20038;-71
2021/12/12 12:06:32;;;;;;;6.38;3.60;;;;;;;;;;10342788;28;20052;-71
2021/12/12 12:11:47;;;;;;;4.32;2.28;;;;;;;;;;10336476;28;20136;-71
2021/12/12 12:16:53;;;;;;;3.90;2.43;;;;;;;;;;10338821;28;20066;-70
2021/12/12 12:22:02;;;;;;;4.22;2.25;;;;;;;;;;10326836;28;20046;-72
2021/12/12 12:27:07;;;;;;;3.63;2.20;;;;;;;;;;10341937;28;20042;-71
2021/12/12 12:32:36;;;;;;;4.22;2.25;;;;;;;;;;10325908;28;20179;-70
2021/12/12 12:37:58;;;;;;;2.85;1.80;;;;;;;;;;10327032;28;20449;-71
2021/12/12 12:43:03;;;;;;;;;;;;;;;;;;10323874;28;20060;-70
2021/12/12 12:48:39;;;;;;;5.35;2.60;;;;;;;;;;10327268;28;19984;-70
2021/12/12 12:54:16;;;;;;;5.15;1.75;;;;;;;;;;10308577;28;20042;-71
2021/12/12 12:59:39;;;;;;;7.10;2.47;;;;;;;;;;10319690;28;20409;-70
2021/12/12 13:04:47;;;;;;;2.80;1.40;;;;;;;;;;10308518;28;20359;-70
2021/12/12 13:09:53;;;;;;;7.75;2.55;;;;;;;;;;10323773;28;20042;-71
2021/12/12 13:15:02;;;;;;;4.45;2.05;;;;;;;;;;10322442;28;20050;-71
2021/12/12 13:20:12;;;;;;;4.22;2.08;;;;;;;;;;10315534;28;20043;-70
2021/12/12 13:25:18;;;;;;;4.32;1.92;;;;;;;;;;10310015;28;20035;-69
2021/12/12 13:30:29;;;;;;;4.50;1.98;;;;;;;;;;10311132;28;20126;-70
2021/12/12 13:35:35;;;;;;;2.72;1.65;;;;;;;;;;10328183;28;20035;-70
2021/12/12 13:40:40;;;;;;;5.35;1.52;;;;;;;;;;10315118;28;20149;-71
2021/12/12 13:45:51;;;;;;;3.70;1.98;;;;;;;;;;10325546;28;20046;-71
2021/12/12 13:51:00;;;;;;;6.53;1.77;;;;;;;;;;10330020;28;20042;-71
2021/12/12 13:56:06;;;;;;;4.45;2.13;;;;;;;;;;10314768;28;20041;-70
2021/12/12 14:01:12;;;;;;;3.30;1.92;;;;;;;;;;10325236;28;20125;-71
2021/12/12 14:06:17;;;;;;;3.95;1.23;;;;;;;;;;10330508;28;20038;-71
2021/12/12 14:11:26;;;;;;;1.65;1.13;;;;;;;;;;10327114;22;20058;-70
2021/12/12 14:16:31;;;;;;;3.33;1.58;;;;;;;;;;10287327;28;20077;-68
2021/12/12 14:21:35;;;;;;;1.80;1.13;;;;;;;;;;10266389;28;20081;-70
2021/12/12 14:26:39;;;;;;;1.90;1.02;;;;;;;;;;10268937;28;20530;-69
2021/12/12 14:31:46;;;;;;;1.85;1.60;;;;;;;;;;10270242;28;20051;-69
2021/12/12 14:36:50;;;;;;;2.30;1.25;;;;;;;;;;10269914;28;20071;-69
2021/12/12 14:41:59;;;;;;;2.60;1.00;;;;;;;;;;10269545;28;20093;-69
2021/12/12 14:47:05;;;;;;;1.67;0.90;;;;;;;;;;10276926;28;20134;-69
2021/12/12 14:52:14;;;;;;;2.70;1.77;;;;;;;;;;10265168;28;20031;-69
2021/12/12 14:57:25;;;;;;;6.32;2.50;;;;;;;;;;10273662;28;20062;-69
2021/12/12 15:02:37;;;;;;;4.50;1.88;;;;;;;;;;10266457;28;20035;-70
2021/12/12 15:07:42;;;;;;;2.90;1.73;;;;;;;;;;10278509;28;20089;-70
2021/12/12 15:12:46;;;;;;;6.28;2.40;;;;;;;;;;10282766;28;20097;-69
2021/12/12 15:17:52;;;;;;;3.28;1.73;;;;;;;;;;10269698;28;20458;-69
2021/12/12 15:22:57;;;;;;;2.58;1.25;;;;;;;;;;10268948;28;20121;-69
2021/12/12 15:28:02;;;;;;;4.60;2.70;;;;;;;;;;10261235;28;20276;-69
2021/12/12 15:33:07;;;;;;;6.72;2.08;;;;;;;;;;10269131;28;20034;-70
2021/12/12 15:38:12;;;;;;;4.80;1.93;;;;;;;;;;10268807;28;20070;-68
2021/12/12 15:43:21;;;;;;;4.90;1.97;;;;;;;;;;10256436;28;20038;-69
2021/12/12 15:48:32;;;;;;;4.43;1.93;;;;;;;;;;10259633;28;20054;-66
2021/12/12 15:53:37;;;;;;;2.83;1.47;;;;;;;;;;10261660;28;20058;-69
2021/12/12 15:58:45;;;;;;;1.17;0.88;;;;;;;;;;10261488;28;20511;-68
2021/12/12 16:03:51;;;;;;;2.78;1.58;;;;;;;;;;10264299;28;20479;-68
2021/12/12 16:08:55;;;;;;;4.10;1.63;;;;;;;;;;10268287;28;20034;-67
2021/12/12 16:14:02;;;;;;;3.60;1.50;;;;;;;;;;10267538;28;20053;-68
2021/12/12 16:19:08;;;;;;;2.20;1.47;;;;;;;;;;10273125;28;20034;-66
2021/12/12 16:24:11;;;;;;;3.17;1.40;;;;;;;;;;10257168;28;20062;-67
2021/12/12 16:29:15;;;;;;;1.75;0.60;;;;;;;;;;10267560;28;20137;-69
2021/12/12 16:34:22;;;;;;;5.13;2.10;;;;;;;;;;10270861;28;20564;-68
2021/12/12 16:39:27;;;;;;;6.85;2.40;;;;;;;;;;10275175;28;20036;-68
2021/12/12 16:44:31;;;;;;;0.93;0.75;;;;;;;;;;10272852;28;20039;-69
2021/12/12 16:49:36;;;;;;;3.15;1.67;;;;;;;;;;10275622;28;20051;-68
2021/12/12 16:54:41;;;;;;;2.28;0.40;;;;;;;;;;10275779;28;20113;-70
2021/12/12 17:00:07;;;;;;;5.28;2.35;;;;;;;;;;10287701;28;20092;-69
2021/12/12 17:05:12;;;;;;;2.03;1.08;;;;;;;;;;10273369;28;20515;-70
2021/12/12 17:10:16;;;;;;;4.78;1.98;;;;;;;;;;10281170;28;20105;-69
2021/12/12 17:15:22;;;;;;;1.60;1.13;;;;;;;;;;10283438;28;20145;-68
2021/12/12 17:20:28;;;;;;;4.75;1.70;;;;;;;;;;10275288;28;20050;-69
2021/12/12 17:25:31;;;;;;;8.10;2.80;;;;;;;;;;10275680;28;20061;-69
2021/12/12 17:30:33;;;;;;;6.23;2.30;;;;;;;;;;10277128;28;20055;-69
2021/12/12 17:35:40;;;;;;;5.07;2.27;;;;;;;;;;10264870;28;20190;-70
2021/12/12 17:40:48;;;;;;;2.38;1.55;;;;;;;;;;10284828;28;20073;-69
2021/12/12 17:46:07;;;;;;;3.83;1.47;;;;;;;;;;10296642;28;20050;-69
2021/12/12 17:51:29;;;;;;;3.90;1.07;;;;;;;;;;10270633;28;20452;-69
2021/12/12 17:56:38;;;;;;;3.30;1.33;;;;;;;;;;10281130;28;20052;-68
2021/12/12 18:01:46;;;;;;;1.05;0.93;;;;;;;;;;10275442;28;20240;-69
2021/12/12 18:06:52;;;;;;;2.43;1.33;;;;;;;;;;10278453;28;20058;-69
2021/12/12 18:12:01;;;;;;;2.63;1.30;;;;;;;;;;10260555;28;20455;-69
2021/12/12 18:17:09;;;;;;;2.13;1.10;;;;;;;;;;10269499;28;20082;-70
2021/12/12 18:22:34;;;;;;;1.83;1.07;;;;;;;;;;10270674;28;20143;-70
2021/12/12 18:27:44;;;;;;;6.27;1.97;;;;;;;;;;10273953;28;20108;-68
2021/12/12 18:32:48;;;;;;;3.33;1.27;;;;;;;;;;10255463;28;20041;-68
2021/12/12 18:37:54;;;;;;;5.65;2.70;;;;;;;;;;10271931;28;20074;-69
2021/12/12 18:43:00;;;;;;;3.60;1.83;;;;;;;;;;10262566;28;20067;-68
2021/12/12 18:48:05;;;;;;;3.63;1.73;;;;;;;;;;10263162;28;20458;-69
2021/12/12 18:53:11;;;;;;;2.97;1.43;;;;;;;;;;10272963;28;20079;-69
2021/12/12 18:58:17;;;;;;;3.60;1.63;;;;;;;;;;10271053;28;20384;-68
2021/12/12 19:03:21;;;;;;;2.10;1.40;;;;;;;;;;10267372;28;20099;-68
2021/12/12 19:08:24;;;;;;;;;;;;;;;;;;10273942;28;20050;-69
2021/12/12 19:13:29;;;;;;;6.53;2.70;;;;;;;;;;10254060;28;20021;-68
2021/12/12 19:18:34;;;;;;;7.63;2.80;;;;;;;;;;10274715;28;20156;-70
2021/12/12 19:23:38;;;;;;;7.57;3.53;;;;;;;;;;10252728;28;20062;-67
2021/12/12 19:28:44;;;;;;;7.10;2.83;;;;;;;;;;10262803;28;20770;-67
2021/12/12 19:33:54;;;;;;;2.93;1.50;;;;;;;;;;10263018;28;20460;-68
2021/12/12 19:38:57;;;;;;;3.37;1.87;;;;;;;;;;10268829;28;20047;-69
2021/12/12 19:44:03;;;;;;;4.35;2.50;;;;;;;;;;10264049;28;20070;-68
2021/12/12 19:49:08;;;;;;;8.97;2.33;;;;;;;;;;10265572;28;20097;-69
2021/12/12 19:54:12;;;;;;;8.83;3.17;;;;;;;;;;10272571;28;20755;-68
2021/12/12 19:59:20;;;;;;;5.13;3.03;;;;;;;;;;10277622;28;20106;-67
2021/12/12 20:04:24;;;;;;;6.63;3.13;;;;;;;;;;10270699;28;20055;-68
2021/12/12 20:09:29;;;;;;;7.45;3.03;;;;;;;;;;10269042;28;20497;-70
2021/12/12 20:14:36;;;;;;;3.20;1.87;;;;;;;;;;10259932;28;20193;-67
2021/12/12 20:19:42;;;;;;;1.57;1.47;;;;;;;;;;10272785;28;20062;-68
2021/12/12 20:24:48;;;;;;;6.10;2.37;;;;;;;;;;10278425;28;20031;-67
2021/12/12 20:29:54;;;;;;;4.80;2.03;;;;;;;;;;10281105;28;20105;-68
2021/12/12 20:34:58;;;;;;;6.10;2.23;;;;;;;;;;10273580;28;20489;-69
2021/12/12 20:40:05;;;;;;;6.28;2.63;;;;;;;;;;10255536;28;20050;-68
2021/12/12 20:45:11;;;;;;;3.30;1.53;;;;;;;;;;10307205;28;20043;-67
2021/12/12 20:50:17;;;;;;;7.37;2.57;;;;;;;;;;10305540;28;20047;-69
2021/12/12 20:55:22;;;;;;;4.30;2.13;;;;;;;;;;10286857;28;20570;-70
2021/12/12 21:00:29;;;;;;;6.77;2.70;;;;;;;;;;10277228;28;20043;-68
2021/12/12 21:05:35;;;;;;;6.80;2.80;;;;;;;;;;10280431;28;20062;-68
2021/12/12 21:10:39;;;;;;;5.53;2.50;;;;;;;;;;10274400;28;20043;-68
2021/12/12 21:15:45;;;;;;;7.13;3.63;;;;;;;;;;10277707;28;20048;-70
2021/12/12 21:20:49;;;;;;;5.47;2.70;;;;;;;;;;10259588;28;20061;-69
2021/12/12 21:25:54;;;;;;;4.53;2.00;;;;;;;;;;10263932;28;20106;-68
2021/12/12 21:31:01;;;;;;;4.20;1.87;;;;;;;;;;10279344;28;20046;-67
2021/12/12 21:36:19;;;;;;;5.40;2.50;;;;;;;;;;10269142;28;20635;-69
2021/12/12 21:41:22;;;;;;;5.87;2.67;;;;;;;;;;10257610;28;20043;-69
2021/12/12 21:46:37;;;;;;;5.93;3.10;;;;;;;;;;10255110;28;20549;-68
2021/12/12 21:51:41;;;;;;;6.00;2.70;;;;;;;;;;10271292;28;20038;-68
2021/12/12 21:56:48;;;;;;;4.13;2.20;;;;;;;;;;10254175;28;20086;-70
2021/12/12 22:01:52;;;;;;;7.83;2.80;;;;;;;;;;10258964;28;20101;-69
2021/12/12 22:06:57;;;;;;;3.97;2.23;;;;;;;;;;10255479;28;20071;-70
2021/12/12 22:12:01;;;;;;;6.85;2.05;;;;;;;;;;10262555;28;20035;-69
2021/12/12 22:17:12;;;;;;;6.17;2.63;;;;;;;;;;10272527;28;20042;-68
2021/12/12 22:22:17;;;;;;;4.10;1.90;;;;;;;;;;10257240;28;20702;-70
2021/12/12 22:27:21;;;;;;;4.40;1.98;;;;;;;;;;10268424;28;20066;-68
2021/12/12 22:32:24;;;;;;;;;;;;;;;;;;10259786;28;20076;-69
2021/12/12 22:37:29;;;;;;;4.70;2.17;;;;;;;;;;10264476;28;19928;-69
2021/12/12 22:42:33;;;;;;;6.80;2.70;;;;;;;;;;10253732;28;20101;-71
2021/12/12 22:47:37;;;;;;;3.47;1.45;;;;;;;;;;10267561;28;20039;-70
2021/12/12 22:52:43;;;;;;;3.42;2.17;;;;;;;;;;10273652;28;20137;-68
2021/12/12 22:57:48;;;;;;;1.88;0.95;;;;;;;;;;10265561;28;20125;-68
2021/12/12 23:02:52;;;;;;;3.43;1.80;;;;;;;;;;10267613;28;20046;-69
2021/12/12 23:07:58;;;;;;;1.77;0.85;;;;;;;;;;10266394;28;20115;-68
2021/12/12 23:13:03;;;;;;;2.60;0.93;;;;;;;;;;10263037;28;20047;-68
2021/12/12 23:18:13;;;;;;;1.80;0.93;;;;;;;;;;10275316;28;20067;-68
2021/12/12 23:23:19;;;;;;;2.37;1.00;;;;;;;;;;10308718;23;20052;-70
2021/12/12 23:33:44;;;;;;;2.80;1.07;;;;;;;;;;10343287;28;20042;-69
2021/12/12 23:38:51;;;;;;;1.60;0.80;;;;;;;;;;10337058;28;20514;-70
2021/12/12 23:44:20;;;;;;;1.47;1.07;;;;;;;;;;10334909;28;20678;-69
2021/12/12 23:49:24;;;;;;;1.60;0.80;;;;;;;;;;10350955;28;20053;-71
2021/12/12 23:54:30;;;;;;;1.80;1.07;;;;;;;;;;10330970;28;20038;-70
2021/12/12 23:59:34;;;;;;;1.63;1.00;;;;;;;;;;10333946;28;20046;-70
